Kine — C6WT4 — position and weather

sailwx.info

Track history (hours):
 
Tides and Currents Weather Stations Pressure Air Temp Water Temp Dewpoint Dewpoint Depression Visibility Wind Speed Wind Dir Waves Ship Positions

Kine

Last reported at 2017-Nov-17 21:00 UTC. Time now 2017-Nov-17 21:20 UTC.
Position N 58°57' E 005°45'.

Length 89 m; draft 5 m.

Type: Cargo ship. MMSI: 311117000.

Date/timePositionNaut miles runAvg speedWind from/ knotsBaromVisibWave heightAir tempDewpointWater temp
2017-Nov-17 21:00N 58°57' E 005°45'0 0.0
2017-Nov-17 20:30N 58°57' E 005°45'0 0.0
2017-Nov-17 20:00N 58°57' E 005°45'0 0.0
2017-Nov-17 19:30N 58°57' E 005°45'0 0.0
2017-Nov-17 19:00N 58°57' E 005°45'0 0.0
2017-Nov-17 18:30N 58°57' E 005°45'0 0.0
2017-Nov-17 18:00N 58°57' E 005°45'0 0.0
2017-Nov-17 17:30N 58°57' E 005°45'0 0.0
2017-Nov-17 17:00N 58°57' E 005°45'0 0.0
2017-Nov-17 16:30N 58°57' E 005°45'0 0.0
2017-Nov-17 16:00N 58°57' E 005°45'0 0.0
2017-Nov-17 15:30N 58°57' E 005°45'0 0.0
2017-Nov-17 15:00N 58°57' E 005°45'0 0.0
2017-Nov-17 14:30N 58°57' E 005°45'0 0.0
2017-Nov-17 14:00N 58°57' E 005°45'0 0.0
2017-Nov-17 13:30N 58°57' E 005°45'0 0.0
2017-Nov-17 13:00N 58°57' E 005°45'0 0.0
2017-Nov-17 12:30N 58°57' E 005°45'0 0.0
2017-Nov-17 12:00N 58°57' E 005°45'0 0.0
2017-Nov-17 11:30N 58°57' E 005°45'0 0.0
2017-Nov-17 11:00N 58°57' E 005°45'0 0.0
2017-Nov-17 10:30N 58°57' E 005°45'0 0.0
2017-Nov-17 10:00N 58°57' E 005°45'0 0.0
2017-Nov-17 09:30N 58°57' E 005°45'0 0.0
2017-Nov-17 09:00N 58°57' E 005°45'0 0.0
2017-Nov-17 08:30N 58°57' E 005°45'0 0.0
2017-Nov-17 08:00N 58°57' E 005°45'0 0.0
2017-Nov-17 07:30N 58°57' E 005°45'0 0.0
2017-Nov-17 07:00N 58°57' E 005°45'0 0.0
2017-Nov-17 06:30N 58°57' E 005°45'0 0.0
2017-Nov-17 06:00N 58°57' E 005°45'0 0.0
2017-Nov-17 05:30N 58°57' E 005°45'0 0.0
2017-Nov-17 05:00N 58°57' E 005°45'0 0.0
2017-Nov-17 04:30N 58°57' E 005°45'0 0.0
2017-Nov-17 04:00N 58°57' E 005°45'0 0.0
2017-Nov-17 03:30N 58°57' E 005°45'0 0.0
2017-Nov-17 03:00N 58°57' E 005°45'0 0.0
2017-Nov-17 02:30N 58°57' E 005°45'0 0.0
2017-Nov-17 02:00N 58°57' E 005°45'0 0.0
2017-Nov-17 01:30N 58°57' E 005°45'0 0.0
2017-Nov-17 01:00N 58°57' E 005°45'0 0.0
2017-Nov-17 00:30N 58°57' E 005°45'0 0.0
2017-Nov-17 00:00N 58°57' E 005°45'0 0.0
2017-Nov-16 23:30N 58°57' E 005°45'0 0.0
2017-Nov-16 23:00N 58°57' E 005°45'0 0.0
2017-Nov-16 22:30N 58°57' E 005°45'0 0.0
2017-Nov-16 22:00N 58°57' E 005°45'0 0.0
2017-Nov-16 21:30N 58°57' E 005°45'0 0.0
2017-Nov-16 21:00N 58°57' E 005°45'0 0.0
2017-Nov-16 20:30N 58°57' E 005°45'0 0.0
2017-Nov-16 20:00N 58°57' E 005°45'0 0.0
2017-Nov-16 19:30N 58°57' E 005°45'0 0.0
2017-Nov-16 19:00N 58°57' E 005°45'0 0.0
2017-Nov-16 18:30N 58°57' E 005°45'0 0.0
2017-Nov-16 18:00N 58°57' E 005°45'0 0.0
2017-Nov-16 17:30N 58°57' E 005°45'0 0.0
2017-Nov-16 17:00N 58°57' E 005°45'0 0.0
2017-Nov-16 16:30N 58°57' E 005°45'0 0.0
2017-Nov-16 16:00N 58°57' E 005°45'0 0.0
2017-Nov-16 15:30N 58°57' E 005°45'0 0.0
2017-Nov-16 15:00N 58°57' E 005°45'0 0.0
2017-Nov-16 14:30N 58°57' E 005°45'0 0.0
2017-Nov-16 14:00N 58°57' E 005°45'0 0.0
2017-Nov-16 13:30N 58°57' E 005°45'0 0.0
2017-Nov-16 13:00N 58°57' E 005°45'0 0.0
2017-Nov-16 12:30N 58°57' E 005°45'0 0.0
2017-Nov-16 12:00N 58°57' E 005°45'0 0.0
2017-Nov-16 11:30N 58°57' E 005°45'0 0.0
2017-Nov-16 11:00N 58°57' E 005°45'0 0.0
2017-Nov-16 10:30N 58°57' E 005°45'0 0.0
2017-Nov-16 10:00N 58°57' E 005°45'0 0.0
2017-Nov-16 09:30N 58°57' E 005°45'0 0.0
2017-Nov-16 09:00N 58°57' E 005°45'0 0.5
2017-Nov-16 08:29N 58°57' E 005°46'3 6.8
2017-Nov-16 08:01N 59°00' E 005°46'4 7.9
2017-Nov-16 07:31N 59°02' E 005°38'3 6.1
2017-Nov-16 07:00N 59°00' E 005°33'5 9.8
2017-Nov-16 06:31N 58°55' E 005°33'3 6.2
2017-Nov-16 06:01N 58°52' E 005°31'3 6.4
2017-Nov-16 05:30N 58°50' E 005°28'1 1.6
2017-Nov-16 05:01N 58°49' E 005°27'1 1.5
2017-Nov-16 04:30N 58°48' E 005°27'3 5.7
2017-Nov-16 04:00N 58°46' E 005°24'3 6.3
2017-Nov-16 03:30N 58°43' E 005°22'3 6.2
2017-Nov-16 03:00N 58°40' E 005°21'3 6.3
2017-Nov-16 02:30N 58°37' E 005°20'3 6.5
2017-Nov-16 02:00N 58°34' E 005°18'4 7.1
2017-Nov-16 01:30N 58°30' E 005°15'334 8.0
2017-Nov-14 07:31N 52°57' E 004°21'2 6.8
2017-Nov-14 07:13N 52°56' E 004°19'2 6.8
2017-Nov-14 06:59N 52°54' E 004°18'3 7.0
2017-Nov-14 06:30N 52°51' E 004°16'4 7.2
2017-Nov-14 06:00N 52°48' E 004°13'4 7.3
2017-Nov-14 05:31N 52°45' E 004°10'4 7.1
2017-Nov-14 05:00N 52°42' E 004°07'4 7.3
2017-Nov-14 04:31N 52°39' E 004°04'4 7.7
2017-Nov-14 04:01N 52°36' E 003°60'4 7.9
2017-Nov-14 03:30N 52°32' E 003°56'4 8.0
2017-Nov-14 03:00N 52°29' E 003°55'4 8.4
2017-Nov-14 02:28N 52°24' E 003°53'4 8.5
2017-Nov-14 02:00N 52°20' E 003°52'4 8.3
2017-Nov-14 01:31N 52°16' E 003°53'4 8.5
2017-Nov-14 01:00N 52°12' E 003°54'4 8.7
2017-Nov-14 00:31N 52°08' E 003°55'4 8.8
2017-Nov-14 00:00N 52°03' E 003°57'4 7.7
2017-Nov-13 23:30N 52°00' E 004°01'4 8.3
2017-Nov-13 23:01N 51°59' E 004°07'4 7.3
2017-Nov-13 22:31N 51°56' E 004°12'4 7.1
2017-Nov-13 22:01N 51°54' E 004°16'1 0.1
2017-Nov-13 01:59N 51°53' E 004°16'0 0.0
2017-Nov-13 01:26N 51°53' E 004°16'0 0.0
2017-Nov-13 00:59N 51°53' E 004°16'0 0.0
2017-Nov-13 00:29N 51°53' E 004°16'0 0.0
2017-Nov-12 23:59N 51°53' E 004°16'0 0.0
2017-Nov-12 23:30N 51°53' E 004°16'0 0.4
2017-Nov-12 23:00N 51°53' E 004°16'0 0.5
2017-Nov-12 22:29N 51°53' E 004°16'0 0.0
2017-Nov-12 21:59N 51°53' E 004°16'0 0.0
2017-Nov-12 21:26N 51°53' E 004°16'0 0.0
2017-Nov-12 20:59N 51°53' E 004°16'0 0.0
2017-Nov-12 20:29N 51°53' E 004°16'0 0.0
2017-Nov-12 19:59N 51°53' E 004°16'0 0.0
2017-Nov-12 19:29N 51°53' E 004°16'0 0.0
2017-Nov-12 18:59N 51°53' E 004°16'0 0.0
2017-Nov-12 18:29N 51°53' E 004°16'0 0.0
2017-Nov-12 17:59N 51°53' E 004°16'0 0.0
2017-Nov-12 17:29N 51°53' E 004°16'0 0.0
2017-Nov-12 16:59N 51°53' E 004°16'0 0.0
2017-Nov-12 16:29N 51°53' E 004°16'0 0.0
2017-Nov-12 15:59N 51°53' E 004°16'0 0.0
2017-Nov-12 15:29N 51°53' E 004°16'0 0.0
2017-Nov-12 14:56N 51°53' E 004°16'0 0.0
2017-Nov-12 14:29N 51°53' E 004°16'0 0.0
2017-Nov-12 13:56N 51°53' E 004°16'0 0.0
2017-Nov-12 13:29N 51°53' E 004°16'0 0.0
2017-Nov-12 12:59N 51°53' E 004°16'0 0.0
2017-Nov-12 12:29N 51°53' E 004°16'0 0.0
2017-Nov-12 11:59N 51°53' E 004°16'0 0.0
2017-Nov-12 11:29N 51°53' E 004°16'0 0.0
2017-Nov-12 10:59N 51°53' E 004°16'0 0.0
2017-Nov-12 10:26N 51°53' E 004°16'0 0.0
2017-Nov-12 09:59N 51°53' E 004°16'0 0.0
2017-Nov-12 09:26N 51°53' E 004°16'0 0.0
2017-Nov-12 08:59N 51°53' E 004°16'0 0.0
2017-Nov-12 08:29N 51°53' E 004°16'0 0.0
2017-Nov-12 07:59N 51°53' E 004°16'0 0.0
2017-Nov-12 07:29N 51°53' E 004°16'0 0.0
2017-Nov-12 06:56N 51°53' E 004°16'0 0.0
2017-Nov-12 06:29N 51°53' E 004°16'0 0.0
2017-Nov-12 05:59N 51°53' E 004°16'0 0.0
2017-Nov-12 05:29N 51°53' E 004°16'0 0.0
2017-Nov-12 04:56N 51°53' E 004°16'0 0.0
2017-Nov-12 04:29N 51°53' E 004°16'0 0.0
2017-Nov-12 03:59N 51°53' E 004°16'0 0.0
2017-Nov-12 03:26N 51°53' E 004°16'0 0.0
2017-Nov-12 02:56N 51°53' E 004°16'0 0.0
2017-Nov-12 02:29N 51°53' E 004°16'0 0.0
2017-Nov-12 01:59N 51°53' E 004°16'0 0.0
2017-Nov-12 01:23N 51°53' E 004°16'0 0.0
2017-Nov-12 00:59N 51°53' E 004°16'0 0.0
2017-Nov-12 00:29N 51°53' E 004°16'0 0.0
2017-Nov-11 23:59N 51°53' E 004°16'0 0.0
2017-Nov-11 23:29N 51°53' E 004°16'0 0.0
2017-Nov-11 22:59N 51°53' E 004°16'0 0.0
2017-Nov-11 22:29N 51°53' E 004°16'0 0.0
2017-Nov-11 21:56N 51°53' E 004°16'0 0.0
2017-Nov-11 21:26N 51°53' E 004°16'0 0.0
2017-Nov-11 20:59N 51°53' E 004°16'0 0.0
2017-Nov-11 20:29N 51°53' E 004°16'0 0.0
2017-Nov-11 19:56N 51°53' E 004°16'0 0.0
2017-Nov-11 19:29N 51°53' E 004°16'0 0.0
2017-Nov-11 18:59N 51°53' E 004°16'0 0.0
2017-Nov-11 18:29N 51°53' E 004°16'0 0.0
2017-Nov-11 17:59N 51°53' E 004°16'0 0.0
2017-Nov-11 17:26N 51°53' E 004°16'0 0.0
2017-Nov-11 16:59N 51°53' E 004°16'0 0.0
2017-Nov-11 16:29N 51°53' E 004°16'0 0.0
2017-Nov-11 15:56N 51°53' E 004°16'0 0.0
2017-Nov-11 15:29N 51°53' E 004°16'0 0.0
2017-Nov-11 14:56N 51°53' E 004°16'0 0.0
2017-Nov-11 14:26N 51°53' E 004°16'0 0.0
2017-Nov-11 13:56N 51°53' E 004°16'0 0.0
2017-Nov-11 13:29N 51°53' E 004°16'0 0.0
2017-Nov-11 12:59N 51°53' E 004°16'0 0.0
2017-Nov-11 12:29N 51°53' E 004°16'0 0.0
2017-Nov-11 11:59N 51°53' E 004°16'0 0.0
2017-Nov-11 11:29N 51°53' E 004°16'0 0.0
2017-Nov-11 10:59N 51°53' E 004°16'0 0.0
2017-Nov-11 10:29N 51°53' E 004°16'0 0.0
2017-Nov-11 09:59N 51°53' E 004°16'0 0.0
2017-Nov-11 09:26N 51°53' E 004°16'0 0.0
2017-Nov-11 08:59N 51°53' E 004°16'0 0.0
2017-Nov-11 08:29N 51°53' E 004°16'0 0.0
2017-Nov-11 07:59N 51°53' E 004°16'0 0.0
2017-Nov-11 07:29N 51°53' E 004°16'0 0.0
2017-Nov-11 06:56N 51°53' E 004°16'0 0.0
2017-Nov-11 06:29N 51°53' E 004°16'0 0.0
2017-Nov-11 05:59N 51°53' E 004°16'0 0.0
2017-Nov-11 05:26N 51°53' E 004°16'0 0.0
2017-Nov-11 04:59N 51°53' E 004°16'0 0.0
2017-Nov-11 04:29N 51°53' E 004°16'0 0.0
2017-Nov-11 03:56N 51°53' E 004°16'0 0.0
2017-Nov-11 03:29N 51°53' E 004°16'0 0.0
2017-Nov-11 02:59N 51°53' E 004°16'0 0.0
2017-Nov-11 02:29N 51°53' E 004°16'0 0.0
2017-Nov-11 01:59N 51°53' E 004°16'0 0.0
2017-Nov-11 01:29N 51°53' E 004°16'0 0.0
2017-Nov-11 00:59N 51°53' E 004°16'0 0.0
2017-Nov-11 00:29N 51°53' E 004°16'0 0.0
2017-Nov-10 23:56N 51°53' E 004°16'0 0.0
2017-Nov-10 23:29N 51°53' E 004°16'0 0.0
2017-Nov-10 23:00N 51°53' E 004°16'1 2.1
2017-Nov-10 22:30N 51°53' E 004°18'3 6.8
2017-Nov-10 22:00N 51°54' E 004°23'1 2.4
2017-Nov-10 21:29N 51°54' E 004°25'0 0.0
2017-Nov-10 20:59N 51°54' E 004°25'0 0.0
2017-Nov-10 20:29N 51°54' E 004°25'0 0.0
2017-Nov-10 19:59N 51°54' E 004°25'0 0.0
2017-Nov-10 19:29N 51°54' E 004°25'0 0.0
2017-Nov-10 18:59N 51°54' E 004°25'0 0.0
2017-Nov-10 18:29N 51°54' E 004°25'0 0.0
2017-Nov-10 17:59N 51°54' E 004°25'0 0.0
2017-Nov-10 17:29N 51°54' E 004°25'0 0.0
2017-Nov-10 16:59N 51°54' E 004°25'0 0.0
2017-Nov-10 16:29N 51°54' E 004°25'0 0.0
2017-Nov-10 15:59N 51°54' E 004°25'0 0.0
2017-Nov-10 15:29N 51°54' E 004°25'0 0.0
2017-Nov-10 14:59N 51°54' E 004°25'0 0.0
2017-Nov-10 14:29N 51°54' E 004°25'0 0.0
2017-Nov-10 14:00N 51°54' E 004°25'0 0.0
2017-Nov-10 13:31N 51°54' E 004°25'1 1.1
2017-Nov-10 13:00N 51°54' E 004°24'4 8.3
2017-Nov-10 12:31N 51°54' E 004°18'4 8.2
2017-Nov-10 12:01N 51°56' E 004°12'4 7.4
2017-Nov-10 11:30N 51°58' E 004°07'4 7.7
2017-Nov-10 11:00N 51°60' E 004°02'4 8.0
2017-Nov-10 10:30N 51°60' E 003°55'4 8.5
2017-Nov-10 10:00N 51°59' E 003°48'3 1.1
2017-Nov-10 07:21N 51°56' E 003°47'0 0.0
2017-Nov-10 06:00N 51°56' E 003°47'0 0.8
2017-Nov-10 05:30N 51°57' E 003°47'50 7.5
2017-Nov-09 22:47N 51°40' E 002°30'2 7.9
2017-Nov-09 22:29N 51°38' E 002°28'4 8.2
2017-Nov-09 21:59N 51°35' E 002°24'4 8.3
2017-Nov-09 21:30N 51°32' E 002°20'5 8.6
2017-Nov-09 20:54N 51°27' E 002°15'4 9.0
2017-Nov-09 20:29N 51°24' E 002°12'4 9.1
2017-Nov-09 20:00N 51°20' E 002°09'5 9.6
2017-Nov-09 19:30N 51°16' E 002°05'5 9.8
2017-Nov-09 19:00N 51°12' E 001°60'510.0
2017-Nov-09 18:30N 51°09' E 001°54'510.2
2017-Nov-09 18:00N 51°06' E 001°48'510.7
2017-Nov-09 17:30N 51°02' E 001°42'611.3
2017-Nov-09 17:00N 50°58' E 001°36'126 9.0
2017-Nov-09 03:05N 50°03' W 001°22'1 8.2
2017-Nov-09 03:00N 50°03' W 001°23'4 8.6
2017-Nov-09 02:30N 50°01' W 001°29'5 9.3
2017-Nov-09 02:00N 49°60' W 001°36'510.1
2017-Nov-09 01:30N 49°59' W 001°44'510.9
2017-Nov-09 01:00N 49°57' W 001°52'611.5
2017-Nov-09 00:29N 49°56' W 002°01'1912.0
2017-Nov-08 22:54N 49°52' W 002°30'  
Track history (hours):
 
Tides and Currents Weather Stations Pressure Air Temp Water Temp Dewpoint Dewpoint Depression Visibility Wind Speed Wind Dir Waves Ship Positions

Kine

Last reported at 2017-Nov-17 21:00 UTC. Time now 2017-Nov-17 21:20 UTC.
Position N 58°57' E 005°45'.

Length 89 m; draft 5 m.

Type: Cargo ship. MMSI: 311117000.

Date/timePositionNaut miles runAvg speedWind from/ knotsBaromVisibWave heightAir tempDewpointWater temp
2017-Nov-17 21:00N 58°57' E 005°45'0 0.0
2017-Nov-17 20:30N 58°57' E 005°45'0 0.0
2017-Nov-17 20:00N 58°57' E 005°45'0 0.0
2017-Nov-17 19:30N 58°57' E 005°45'0 0.0
2017-Nov-17 19:00N 58°57' E 005°45'0 0.0
2017-Nov-17 18:30N 58°57' E 005°45'0 0.0
2017-Nov-17 18:00N 58°57' E 005°45'0 0.0
2017-Nov-17 17:30N 58°57' E 005°45'0 0.0
2017-Nov-17 17:00N 58°57' E 005°45'0 0.0
2017-Nov-17 16:30N 58°57' E 005°45'0 0.0
2017-Nov-17 16:00N 58°57' E 005°45'0 0.0
2017-Nov-17 15:30N 58°57' E 005°45'0 0.0
2017-Nov-17 15:00N 58°57' E 005°45'0 0.0
2017-Nov-17 14:30N 58°57' E 005°45'0 0.0
2017-Nov-17 14:00N 58°57' E 005°45'0 0.0
2017-Nov-17 13:30N 58°57' E 005°45'0 0.0
2017-Nov-17 13:00N 58°57' E 005°45'0 0.0
2017-Nov-17 12:30N 58°57' E 005°45'0 0.0
2017-Nov-17 12:00N 58°57' E 005°45'0 0.0
2017-Nov-17 11:30N 58°57' E 005°45'0 0.0
2017-Nov-17 11:00N 58°57' E 005°45'0 0.0
2017-Nov-17 10:30N 58°57' E 005°45'0 0.0
2017-Nov-17 10:00N 58°57' E 005°45'0 0.0
2017-Nov-17 09:30N 58°57' E 005°45'0 0.0
2017-Nov-17 09:00N 58°57' E 005°45'0 0.0
2017-Nov-17 08:30N 58°57' E 005°45'0 0.0
2017-Nov-17 08:00N 58°57' E 005°45'0 0.0
2017-Nov-17 07:30N 58°57' E 005°45'0 0.0
2017-Nov-17 07:00N 58°57' E 005°45'0 0.0
2017-Nov-17 06:30N 58°57' E 005°45'0 0.0
2017-Nov-17 06:00N 58°57' E 005°45'0 0.0
2017-Nov-17 05:30N 58°57' E 005°45'0 0.0
2017-Nov-17 05:00N 58°57' E 005°45'0 0.0
2017-Nov-17 04:30N 58°57' E 005°45'0 0.0
2017-Nov-17 04:00N 58°57' E 005°45'0 0.0
2017-Nov-17 03:30N 58°57' E 005°45'0 0.0
2017-Nov-17 03:00N 58°57' E 005°45'0 0.0
2017-Nov-17 02:30N 58°57' E 005°45'0 0.0
2017-Nov-17 02:00N 58°57' E 005°45'0 0.0
2017-Nov-17 01:30N 58°57' E 005°45'0 0.0
2017-Nov-17 01:00N 58°57' E 005°45'0 0.0
2017-Nov-17 00:30N 58°57' E 005°45'0 0.0
2017-Nov-17 00:00N 58°57' E 005°45'0 0.0
2017-Nov-16 23:30N 58°57' E 005°45'0 0.0
2017-Nov-16 23:00N 58°57' E 005°45'0 0.0
2017-Nov-16 22:30N 58°57' E 005°45'0 0.0
2017-Nov-16 22:00N 58°57' E 005°45'0 0.0
2017-Nov-16 21:30N 58°57' E 005°45'0 0.0
2017-Nov-16 21:00N 58°57' E 005°45'0 0.0
2017-Nov-16 20:30N 58°57' E 005°45'0 0.0
2017-Nov-16 20:00N 58°57' E 005°45'0 0.0
2017-Nov-16 19:30N 58°57' E 005°45'0 0.0
2017-Nov-16 19:00N 58°57' E 005°45'0 0.0
2017-Nov-16 18:30N 58°57' E 005°45'0 0.0
2017-Nov-16 18:00N 58°57' E 005°45'0 0.0
2017-Nov-16 17:30N 58°57' E 005°45'0 0.0
2017-Nov-16 17:00N 58°57' E 005°45'0 0.0
2017-Nov-16 16:30N 58°57' E 005°45'0 0.0
2017-Nov-16 16:00N 58°57' E 005°45'0 0.0
2017-Nov-16 15:30N 58°57' E 005°45'0 0.0
2017-Nov-16 15:00N 58°57' E 005°45'0 0.0
2017-Nov-16 14:30N 58°57' E 005°45'0 0.0
2017-Nov-16 14:00N 58°57' E 005°45'0 0.0
2017-Nov-16 13:30N 58°57' E 005°45'0 0.0
2017-Nov-16 13:00N 58°57' E 005°45'0 0.0
2017-Nov-16 12:30N 58°57' E 005°45'0 0.0
2017-Nov-16 12:00N 58°57' E 005°45'0 0.0
2017-Nov-16 11:30N 58°57' E 005°45'0 0.0
2017-Nov-16 11:00N 58°57' E 005°45'0 0.0
2017-Nov-16 10:30N 58°57' E 005°45'0 0.0
2017-Nov-16 10:00N 58°57' E 005°45'0 0.0
2017-Nov-16 09:30N 58°57' E 005°45'0 0.0
2017-Nov-16 09:00N 58°57' E 005°45'0 0.5
2017-Nov-16 08:29N 58°57' E 005°46'3 6.8
2017-Nov-16 08:01N 59°00' E 005°46'4 7.9
2017-Nov-16 07:31N 59°02' E 005°38'3 6.1
2017-Nov-16 07:00N 59°00' E 005°33'5 9.8
2017-Nov-16 06:31N 58°55' E 005°33'3 6.2
2017-Nov-16 06:01N 58°52' E 005°31'3 6.4
2017-Nov-16 05:30N 58°50' E 005°28'1 1.6
2017-Nov-16 05:01N 58°49' E 005°27'1 1.5
2017-Nov-16 04:30N 58°48' E 005°27'3 5.7
2017-Nov-16 04:00N 58°46' E 005°24'3 6.3
2017-Nov-16 03:30N 58°43' E 005°22'3 6.2
2017-Nov-16 03:00N 58°40' E 005°21'3 6.3
2017-Nov-16 02:30N 58°37' E 005°20'3 6.5
2017-Nov-16 02:00N 58°34' E 005°18'4 7.1
2017-Nov-16 01:30N 58°30' E 005°15'334 8.0
2017-Nov-14 07:31N 52°57' E 004°21'2 6.8
2017-Nov-14 07:13N 52°56' E 004°19'2 6.8
2017-Nov-14 06:59N 52°54' E 004°18'3 7.0
2017-Nov-14 06:30N 52°51' E 004°16'4 7.2
2017-Nov-14 06:00N 52°48' E 004°13'4 7.3
2017-Nov-14 05:31N 52°45' E 004°10'4 7.1
2017-Nov-14 05:00N 52°42' E 004°07'4 7.3
2017-Nov-14 04:31N 52°39' E 004°04'4 7.7
2017-Nov-14 04:01N 52°36' E 003°60'4 7.9
2017-Nov-14 03:30N 52°32' E 003°56'4 8.0
2017-Nov-14 03:00N 52°29' E 003°55'4 8.4
2017-Nov-14 02:28N 52°24' E 003°53'4 8.5
2017-Nov-14 02:00N 52°20' E 003°52'4 8.3
2017-Nov-14 01:31N 52°16' E 003°53'4 8.5
2017-Nov-14 01:00N 52°12' E 003°54'4 8.7
2017-Nov-14 00:31N 52°08' E 003°55'4 8.8
2017-Nov-14 00:00N 52°03' E 003°57'4 7.7
2017-Nov-13 23:30N 52°00' E 004°01'4 8.3
2017-Nov-13 23:01N 51°59' E 004°07'4 7.3
2017-Nov-13 22:31N 51°56' E 004°12'4 7.1
2017-Nov-13 22:01N 51°54' E 004°16'1 0.1
2017-Nov-13 01:59N 51°53' E 004°16'0 0.0
2017-Nov-13 01:26N 51°53' E 004°16'0 0.0
2017-Nov-13 00:59N 51°53' E 004°16'0 0.0
2017-Nov-13 00:29N 51°53' E 004°16'0 0.0
2017-Nov-12 23:59N 51°53' E 004°16'0 0.0
2017-Nov-12 23:30N 51°53' E 004°16'0 0.4
2017-Nov-12 23:00N 51°53' E 004°16'0 0.5
2017-Nov-12 22:29N 51°53' E 004°16'0 0.0
2017-Nov-12 21:59N 51°53' E 004°16'0 0.0
2017-Nov-12 21:26N 51°53' E 004°16'0 0.0
2017-Nov-12 20:59N 51°53' E 004°16'0 0.0
2017-Nov-12 20:29N 51°53' E 004°16'0 0.0
2017-Nov-12 19:59N 51°53' E 004°16'0 0.0
2017-Nov-12 19:29N 51°53' E 004°16'0 0.0
2017-Nov-12 18:59N 51°53' E 004°16'0 0.0
2017-Nov-12 18:29N 51°53' E 004°16'0 0.0
2017-Nov-12 17:59N 51°53' E 004°16'0 0.0
2017-Nov-12 17:29N 51°53' E 004°16'0 0.0
2017-Nov-12 16:59N 51°53' E 004°16'0 0.0
2017-Nov-12 16:29N 51°53' E 004°16'0 0.0
2017-Nov-12 15:59N 51°53' E 004°16'0 0.0
2017-Nov-12 15:29N 51°53' E 004°16'0 0.0
2017-Nov-12 14:56N 51°53' E 004°16'0 0.0
2017-Nov-12 14:29N 51°53' E 004°16'0 0.0
2017-Nov-12 13:56N 51°53' E 004°16'0 0.0
2017-Nov-12 13:29N 51°53' E 004°16'0 0.0
2017-Nov-12 12:59N 51°53' E 004°16'0 0.0
2017-Nov-12 12:29N 51°53' E 004°16'0 0.0
2017-Nov-12 11:59N 51°53' E 004°16'0 0.0
2017-Nov-12 11:29N 51°53' E 004°16'0 0.0
2017-Nov-12 10:59N 51°53' E 004°16'0 0.0
2017-Nov-12 10:26N 51°53' E 004°16'0 0.0
2017-Nov-12 09:59N 51°53' E 004°16'0 0.0
2017-Nov-12 09:26N 51°53' E 004°16'0 0.0
2017-Nov-12 08:59N 51°53' E 004°16'0 0.0
2017-Nov-12 08:29N 51°53' E 004°16'0 0.0
2017-Nov-12 07:59N 51°53' E 004°16'0 0.0
2017-Nov-12 07:29N 51°53' E 004°16'0 0.0
2017-Nov-12 06:56N 51°53' E 004°16'0 0.0
2017-Nov-12 06:29N 51°53' E 004°16'0 0.0
2017-Nov-12 05:59N 51°53' E 004°16'0 0.0
2017-Nov-12 05:29N 51°53' E 004°16'0 0.0
2017-Nov-12 04:56N 51°53' E 004°16'0 0.0
2017-Nov-12 04:29N 51°53' E 004°16'0 0.0
2017-Nov-12 03:59N 51°53' E 004°16'0 0.0
2017-Nov-12 03:26N 51°53' E 004°16'0 0.0
2017-Nov-12 02:56N 51°53' E 004°16'0 0.0
2017-Nov-12 02:29N 51°53' E 004°16'0 0.0
2017-Nov-12 01:59N 51°53' E 004°16'0 0.0
2017-Nov-12 01:23N 51°53' E 004°16'0 0.0
2017-Nov-12 00:59N 51°53' E 004°16'0 0.0
2017-Nov-12 00:29N 51°53' E 004°16'0 0.0
2017-Nov-11 23:59N 51°53' E 004°16'0 0.0
2017-Nov-11 23:29N 51°53' E 004°16'0 0.0
2017-Nov-11 22:59N 51°53' E 004°16'0 0.0
2017-Nov-11 22:29N 51°53' E 004°16'0 0.0
2017-Nov-11 21:56N 51°53' E 004°16'0 0.0
2017-Nov-11 21:26N 51°53' E 004°16'0 0.0
2017-Nov-11 20:59N 51°53' E 004°16'0 0.0
2017-Nov-11 20:29N 51°53' E 004°16'0 0.0
2017-Nov-11 19:56N 51°53' E 004°16'0 0.0
2017-Nov-11 19:29N 51°53' E 004°16'0 0.0
2017-Nov-11 18:59N 51°53' E 004°16'0 0.0
2017-Nov-11 18:29N 51°53' E 004°16'0 0.0
2017-Nov-11 17:59N 51°53' E 004°16'0 0.0
2017-Nov-11 17:26N 51°53' E 004°16'0 0.0
2017-Nov-11 16:59N 51°53' E 004°16'0 0.0
2017-Nov-11 16:29N 51°53' E 004°16'0 0.0
2017-Nov-11 15:56N 51°53' E 004°16'0 0.0
2017-Nov-11 15:29N 51°53' E 004°16'0 0.0
2017-Nov-11 14:56N 51°53' E 004°16'0 0.0
2017-Nov-11 14:26N 51°53' E 004°16'0 0.0
2017-Nov-11 13:56N 51°53' E 004°16'0 0.0
2017-Nov-11 13:29N 51°53' E 004°16'0 0.0
2017-Nov-11 12:59N 51°53' E 004°16'0 0.0
2017-Nov-11 12:29N 51°53' E 004°16'0 0.0
2017-Nov-11 11:59N 51°53' E 004°16'0 0.0
2017-Nov-11 11:29N 51°53' E 004°16'0 0.0
2017-Nov-11 10:59N 51°53' E 004°16'0 0.0
2017-Nov-11 10:29N 51°53' E 004°16'0 0.0
2017-Nov-11 09:59N 51°53' E 004°16'0 0.0
2017-Nov-11 09:26N 51°53' E 004°16'0 0.0
2017-Nov-11 08:59N 51°53' E 004°16'0 0.0
2017-Nov-11 08:29N 51°53' E 004°16'0 0.0
2017-Nov-11 07:59N 51°53' E 004°16'0 0.0
2017-Nov-11 07:29N 51°53' E 004°16'0 0.0
2017-Nov-11 06:56N 51°53' E 004°16'0 0.0
2017-Nov-11 06:29N 51°53' E 004°16'0 0.0
2017-Nov-11 05:59N 51°53' E 004°16'0 0.0
2017-Nov-11 05:26N 51°53' E 004°16'0 0.0
2017-Nov-11 04:59N 51°53' E 004°16'0 0.0
2017-Nov-11 04:29N 51°53' E 004°16'0 0.0
2017-Nov-11 03:56N 51°53' E 004°16'0 0.0
2017-Nov-11 03:29N 51°53' E 004°16'0 0.0
2017-Nov-11 02:59N 51°53' E 004°16'0 0.0
2017-Nov-11 02:29N 51°53' E 004°16'0 0.0
2017-Nov-11 01:59N 51°53' E 004°16'0 0.0
2017-Nov-11 01:29N 51°53' E 004°16'0 0.0
2017-Nov-11 00:59N 51°53' E 004°16'0 0.0
2017-Nov-11 00:29N 51°53' E 004°16'0 0.0
2017-Nov-10 23:56N 51°53' E 004°16'0 0.0
2017-Nov-10 23:29N 51°53' E 004°16'0 0.0
2017-Nov-10 23:00N 51°53' E 004°16'1 2.1
2017-Nov-10 22:30N 51°53' E 004°18'3 6.8
2017-Nov-10 22:00N 51°54' E 004°23'1 2.4
2017-Nov-10 21:29N 51°54' E 004°25'0 0.0
2017-Nov-10 20:59N 51°54' E 004°25'0 0.0
2017-Nov-10 20:29N 51°54' E 004°25'0 0.0
2017-Nov-10 19:59N 51°54' E 004°25'0 0.0
2017-Nov-10 19:29N 51°54' E 004°25'0 0.0
2017-Nov-10 18:59N 51°54' E 004°25'0 0.0
2017-Nov-10 18:29N 51°54' E 004°25'0 0.0
2017-Nov-10 17:59N 51°54' E 004°25'0 0.0
2017-Nov-10 17:29N 51°54' E 004°25'0 0.0
2017-Nov-10 16:59N 51°54' E 004°25'0 0.0
2017-Nov-10 16:29N 51°54' E 004°25'0 0.0
2017-Nov-10 15:59N 51°54' E 004°25'0 0.0
2017-Nov-10 15:29N 51°54' E 004°25'0 0.0
2017-Nov-10 14:59N 51°54' E 004°25'0 0.0
2017-Nov-10 14:29N 51°54' E 004°25'0 0.0
2017-Nov-10 14:00N 51°54' E 004°25'0 0.0
2017-Nov-10 13:31N 51°54' E 004°25'1 1.1
2017-Nov-10 13:00N 51°54' E 004°24'4 8.3
2017-Nov-10 12:31N 51°54' E 004°18'4 8.2
2017-Nov-10 12:01N 51°56' E 004°12'4 7.4
2017-Nov-10 11:30N 51°58' E 004°07'4 7.7
2017-Nov-10 11:00N 51°60' E 004°02'4 8.0
2017-Nov-10 10:30N 51°60' E 003°55'4 8.5
2017-Nov-10 10:00N 51°59' E 003°48'3 1.1
2017-Nov-10 07:21N 51°56' E 003°47'0 0.0
2017-Nov-10 06:00N 51°56' E 003°47'0 0.8
2017-Nov-10 05:30N 51°57' E 003°47'50 7.5
2017-Nov-09 22:47N 51°40' E 002°30'2 7.9
2017-Nov-09 22:29N 51°38' E 002°28'4 8.2
2017-Nov-09 21:59N 51°35' E 002°24'4 8.3
2017-Nov-09 21:30N 51°32' E 002°20'5 8.6
2017-Nov-09 20:54N 51°27' E 002°15'4 9.0
2017-Nov-09 20:29N 51°24' E 002°12'4 9.1
2017-Nov-09 20:00N 51°20' E 002°09'5 9.6
2017-Nov-09 19:30N 51°16' E 002°05'5 9.8
2017-Nov-09 19:00N 51°12' E 001°60'510.0
2017-Nov-09 18:30N 51°09' E 001°54'510.2
2017-Nov-09 18:00N 51°06' E 001°48'510.7
2017-Nov-09 17:30N 51°02' E 001°42'611.3
2017-Nov-09 17:00N 50°58' E 001°36'126 9.0
2017-Nov-09 03:05N 50°03' W 001°22'1 8.2
2017-Nov-09 03:00N 50°03' W 001°23'4 8.6
2017-Nov-09 02:30N 50°01' W 001°29'5 9.3
2017-Nov-09 02:00N 49°60' W 001°36'510.1
2017-Nov-09 01:30N 49°59' W 001°44'510.9
2017-Nov-09 01:00N 49°57' W 001°52'611.5
2017-Nov-09 00:29N 49°56' W 002°01'1912.0
2017-Nov-08 22:54N 49°52' W 002°30'  

Dump ship's entire track history